Time;durP1;ratioP1;P1;durP2;ratioP2;P2;SDS_P1;SDS_P2;PMS_P1;PMS_P2;Temp;Humidity;BMP_temperature;BMP_pressure;BME280_temperature;BME280_humidity;BME280_pressure;Samples;Min_cycle;Max_cycle;Signal;HPM_P1;HPM_P2
2021/01/21 00:01:51;;;;;;;53.80;30.35;;;;;;;;;;4943684;29;20024;-92
2021/01/21 00:04:17;;;;;;;52.30;29.10;;;;;;;;;;4943482;29;20407;-94
2021/01/21 00:06:44;;;;;;;53.40;28.77;;;;;;;;;;4943845;29;20402;-94
2021/01/21 00:09:10;;;;;;;54.10;28.92;;;;;;;;;;4943759;29;20362;-95
2021/01/21 00:11:36;;;;;;;53.78;28.67;;;;;;;;;;4926840;29;20043;-95
2021/01/21 00:14:02;;;;;;;58.15;30.05;;;;;;;;;;4943517;29;20028;-94
2021/01/21 00:16:34;;;;;;;54.83;30.73;;;;;;;;;;4943251;29;20024;-95
2021/01/21 00:19:00;;;;;;;51.72;27.67;;;;;;;;;;4926394;29;20031;-94
2021/01/21 00:21:26;;;;;;;49.25;27.33;;;;;;;;;;4926526;29;20115;-93
2021/01/21 00:26:55;;;;;;;53.33;27.38;;;;;;;;;;4943313;29;20030;-94
2021/01/21 00:29:22;;;;;;;48.45;27.52;;;;;;;;;;4943903;29;20027;-91
2021/01/21 00:31:49;;;;;;;47.92;26.33;;;;;;;;;;4925981;29;20031;-95
2021/01/21 00:34:15;;;;;;;50.80;27.45;;;;;;;;;;4942644;29;20082;-94
2021/01/21 00:36:41;;;;;;;49.22;27.27;;;;;;;;;;4943008;29;20020;-94
2021/01/21 00:39:44;;;;;;;47.10;26.60;;;;;;;;;;4926332;29;20422;-95
2021/01/21 00:42:10;;;;;;;46.15;24.48;;;;;;;;;;4926156;29;20024;-95
2021/01/21 00:44:36;;;;;;;50.22;27.10;;;;;;;;;;4926216;29;20075;-94
2021/01/21 00:47:02;;;;;;;48.88;26.85;;;;;;;;;;4942712;29;20031;-93
2021/01/21 00:49:28;;;;;;;50.63;27.73;;;;;;;;;;4926033;29;20350;-95
2021/01/21 00:51:54;;;;;;;54.42;28.10;;;;;;;;;;4926003;29;20036;-94
2021/01/21 00:54:20;;;;;;;54.72;28.95;;;;;;;;;;4925545;29;20466;-95
2021/01/21 00:56:46;;;;;;;49.47;26.60;;;;;;;;;;4925952;29;20028;-95
2021/01/21 00:59:12;;;;;;;50.08;27.55;;;;;;;;;;4925955;29;20039;-94
2021/01/21 01:01:39;;;;;;;52.63;28.13;;;;;;;;;;4942947;29;20083;-94
2021/01/21 01:04:05;;;;;;;52.35;28.90;;;;;;;;;;4925655;29;20061;-93
2021/01/21 01:06:31;;;;;;;55.97;30.35;;;;;;;;;;4942707;29;20027;-95
2021/01/21 01:08:57;;;;;;;51.65;29.55;;;;;;;;;;4942586;29;20054;-95
2021/01/21 01:11:23;;;;;;;57.95;30.35;;;;;;;;;;4925837;29;20043;-94
2021/01/21 01:13:49;;;;;;;48.67;29.80;;;;;;;;;;4942500;29;20412;-94
2021/01/21 01:16:15;;;;;;;48.65;27.48;;;;;;;;;;4942497;29;20343;-94
2021/01/21 01:18:43;;;;;;;52.00;27.50;;;;;;;;;;4942494;29;20032;-95
2021/01/21 01:21:10;;;;;;;45.88;26.20;;;;;;;;;;4944908;29;20071;-96
2021/01/21 01:26:40;;;;;;;56.70;30.05;;;;;;;;;;4945997;29;20039;-95
2021/01/21 01:29:06;;;;;;;57.67;31.45;;;;;;;;;;4947869;29;20027;-95
2021/01/21 01:31:32;;;;;;;60.33;32.10;;;;;;;;;;4925569;29;20024;-95
2021/01/21 01:33:59;;;;;;;54.28;32.55;;;;;;;;;;4925802;29;20055;-96
2021/01/21 01:36:26;;;;;;;54.80;31.92;;;;;;;;;;4943744;29;20099;-94
2021/01/21 02:26:44;;;;;;;110.80;48.45;;;;;;;;;;6038581;23;20108;-95
2021/01/21 02:29:37;;;;;;;88.18;42.47;;;;;;;;;;4937017;29;20035;-96
2021/01/21 02:34:52;;;;;;;75.43;39.67;;;;;;;;;;5195344;23;20063;-96
2021/01/21 02:37:37;;;;;;;74.43;38.63;;;;;;;;;;4947959;29;20058;-95
2021/01/21 02:40:05;;;;;;;79.55;40.03;;;;;;;;;;4963829;29;20315;-95
2021/01/21 02:42:44;;;;;;;75.55;38.28;;;;;;;;;;4947054;29;20035;-96
2021/01/21 02:45:13;;;;;;;80.40;40.45;;;;;;;;;;4966944;29;20027;-95
2021/01/21 02:47:40;;;;;;;77.10;40.20;;;;;;;;;;4949956;29;20063;-96
2021/01/21 02:50:09;;;;;;;77.72;41.20;;;;;;;;;;4966362;29;20035;-96
2021/01/21 02:52:36;;;;;;;99.05;44.40;;;;;;;;;;4958624;29;20023;-96
2021/01/21 02:55:23;;;;;;;99.13;43.75;;;;;;;;;;4932147;29;20028;-96
2021/01/21 02:57:59;;;;;;;74.22;39.95;;;;;;;;;;4933110;29;20047;-96
2021/01/21 03:00:28;;;;;;;74.90;39.50;;;;;;;;;;4931241;29;20428;-96
2021/01/21 03:02:59;;;;;;;63.38;36.65;;;;;;;;;;4947988;29;20110;-96
2021/01/21 03:05:26;;;;;;;69.75;38.40;;;;;;;;;;4945925;29;20044;-96
2021/01/21 03:07:52;;;;;;;73.22;37.80;;;;;;;;;;4927069;29;20111;-95
2021/01/21 03:10:20;;;;;;;64.75;36.85;;;;;;;;;;4940893;29;20032;-96
2021/01/21 03:12:53;;;;;;;60.80;35.42;;;;;;;;;;4924130;29;20107;-96
2021/01/21 03:15:20;;;;;;;59.15;35.97;;;;;;;;;;4941134;29;20032;-95
2021/01/21 03:17:46;;;;;;;58.10;35.85;;;;;;;;;;4940306;29;20032;-95
2021/01/21 03:20:12;;;;;;;60.95;35.28;;;;;;;;;;4940337;29;20031;-95
2021/01/21 03:26:00;;;;;;;;;;;;;;;;;;4940942;29;20066;-94
2021/01/21 03:28:26;;;;;;;;;;;;;;;;;;4940596;29;19906;-96
2021/01/21 03:30:52;;;;;;;;;;;;;;;;;;4940670;29;19906;-95
2021/01/21 03:33:18;;;;;;;;;;;;;;;;;;4923630;29;19906;-94
2021/01/21 03:35:44;;;;;;;;;;;;;;;;;;4940996;29;19909;-96
2021/01/21 03:40:54;;;;;;;;;;;;;;;;;;4940475;29;20005;-93
2021/01/21 03:43:20;;;;;;;;;;;;;;;;;;4940837;29;19942;-95
2021/01/21 03:45:46;;;;;;;;;;;;;;;;;;4940797;29;19910;-93
2021/01/21 03:48:12;;;;;;;;;;;;;;;;;;4940636;29;20305;-93
2021/01/21 03:50:38;;;;;;;;;;;;;;;;;;4940517;29;19903;-95
2021/01/21 03:53:04;;;;;;;;;;;;;;;;;;4923728;29;19911;-94
2021/01/21 03:55:30;;;;;;;;;;;;;;;;;;4940579;29;19911;-94
2021/01/21 03:57:56;;;;;;;;;;;;;;;;;;4923708;29;19914;-95
2021/01/21 04:00:22;;;;;;;;;;;;;;;;;;4940363;29;19922;-94
2021/01/21 04:02:48;;;;;;;;;;;;;;;;;;4940232;29;19911;-93
2021/01/21 04:05:14;;;;;;;;;;;;;;;;;;4940247;29;19915;-94
2021/01/21 04:07:40;;;;;;;;;;;;;;;;;;4942681;29;19913;-94
2021/01/21 04:12:50;;;;;;;;;;;;;;;;;;4943913;29;19913;-94
2021/01/21 04:15:16;;;;;;;;;;;;;;;;;;4926951;29;19910;-93
2021/01/21 04:17:42;;;;;;;;;;;;;;;;;;4944525;29;20005;-95
2021/01/21 04:20:08;;;;;;;;;;;;;;;;;;4943988;29;19972;-95
2021/01/21 04:22:34;;;;;;;;;;;;;;;;;;4943736;29;20190;-94
2021/01/21 04:27:44;;;;;;;;;;;;;;;;;;4944209;29;19961;-96
2021/01/21 04:30:11;;;;;;;;;;;;;;;;;;4944097;29;19945;-96
2021/01/21 04:32:37;;;;;;;;;;;;;;;;;;4927174;29;19906;-96
2021/01/21 04:35:03;;;;;;;;;;;;;;;;;;4944008;29;19930;-96
2021/01/21 04:37:29;;;;;;;;;;;;;;;;;;4945092;29;19902;-96
2021/01/21 04:42:39;;;;;;;;;;;;;;;;;;4947377;29;19993;-96
2021/01/21 04:45:07;;;;;;;;;;;;;;;;;;4947285;29;19993;-96
2021/01/21 04:47:33;;;;;;;;;;;;;;;;;;4947354;29;19907;-91
2021/01/21 04:50:01;;;;;;;;;;;;;;;;;;4926562;29;19950;-96
2021/01/21 04:52:27;;;;;;;;;;;;;;;;;;4926202;29;19947;-94
2021/01/21 05:05:34;;;;;;;;;;;;;;;;;;4964025;23;19926;-82
2021/01/21 05:08:00;;;;;;;;;;;;;;;;;;4941465;28;19962;-84
2021/01/21 05:10:26;;;;;;;;;;;;;;;;;;4944791;29;19913;-83
2021/01/21 05:12:52;;;;;;;;;;;;;;;;;;4942502;29;20294;-83
2021/01/21 05:15:18;;;;;;;;;;;;;;;;;;4942470;29;19910;-94
2021/01/21 05:17:43;;;;;;;;;;;;;;;;;;4942623;29;19907;-84
2021/01/21 05:20:12;;;;;;;;;;;;;;;;;;4925076;29;19926;-85
2021/01/21 05:22:40;;;;;;;;;;;;;;;;;;4942706;29;20004;-85
2021/01/21 05:25:06;;;;;;;;;;;;;;;;;;4925846;29;19907;-85
2021/01/21 05:27:32;;;;;;;;;;;;;;;;;;4925732;29;19914;-85
2021/01/21 05:29:58;;;;;;;;;;;;;;;;;;4925662;29;19906;-85
2021/01/21 05:32:24;;;;;;;;;;;;;;;;;;4942365;29;19913;-86
2021/01/21 05:34:50;;;;;;;;;;;;;;;;;;4942271;29;20032;-85
2021/01/21 05:37:16;;;;;;;;;;;;;;;;;;4942395;29;19911;-85
2021/01/21 05:39:42;;;;;;;;;;;;;;;;;;4942050;29;19906;-85
2021/01/21 05:42:08;;;;;;;;;;;;;;;;;;4942028;29;19906;-86
2021/01/21 05:44:34;;;;;;;;;;;;;;;;;;4942216;29;19947;-85
2021/01/21 05:47:00;;;;;;;;;;;;;;;;;;4941814;29;19910;-85
2021/01/21 05:49:26;;;;;;;;;;;;;;;;;;4942109;29;19906;-85
2021/01/21 05:51:52;;;;;;;;;;;;;;;;;;4938293;29;19907;-85
2021/01/21 05:54:18;;;;;;;;;;;;;;;;;;4922741;29;19918;-85
2021/01/21 05:56:44;;;;;;;;;;;;;;;;;;4922825;29;19907;-85
2021/01/21 05:59:10;;;;;;;;;;;;;;;;;;4906053;29;20088;-86
2021/01/21 06:01:36;;;;;;;;;;;;;;;;;;4922681;29;19978;-86
2021/01/21 06:04:03;;;;;;;;;;;;;;;;;;4922569;29;19954;-85
2021/01/21 06:06:29;;;;;;;;;;;;;;;;;;4922598;29;20009;-85
2021/01/21 06:08:55;;;;;;;;;;;;;;;;;;4922809;29;19938;-85
2021/01/21 06:11:21;;;;;;;;;;;;;;;;;;4906024;29;20309;-85
2021/01/21 06:13:47;;;;;;;;;;;;;;;;;;4905916;29;19958;-85
2021/01/21 06:16:13;;;;;;;;;;;;;;;;;;4905896;29;19914;-86
2021/01/21 06:18:39;;;;;;;;;;;;;;;;;;4922469;29;20202;-85
2021/01/21 06:21:05;;;;;;;;;;;;;;;;;;4922443;29;20265;-86
2021/01/21 06:23:30;;;;;;;;;;;;;;;;;;4922437;29;19946;-85
2021/01/21 06:25:56;;;;;;;;;;;;;;;;;;4922610;29;19950;-86
2021/01/21 06:28:22;;;;;;;;;;;;;;;;;;4905631;29;19907;-86
2021/01/21 06:30:48;;;;;;;;;;;;;;;;;;4921590;29;20298;-86
2021/01/21 06:33:14;;;;;;;;;;;;;;;;;;4922389;29;19961;-86
2021/01/21 06:35:40;;;;;;;;;;;;;;;;;;4921992;29;19974;-86
2021/01/21 06:38:06;;;;;;;;;;;;;;;;;;4905805;29;19952;-86
2021/01/21 06:40:32;;;;;;;;;;;;;;;;;;4922440;29;19941;-86
2021/01/21 06:42:58;;;;;;;;;;;;;;;;;;4922343;29;19945;-87
2021/01/21 06:45:24;;;;;;;;;;;;;;;;;;4905467;29;19915;-86
2021/01/21 06:47:50;;;;;;;;;;;;;;;;;;4921974;29;20195;-86
2021/01/21 06:50:16;;;;;;;;;;;;;;;;;;4922078;29;20346;-85
2021/01/21 06:52:42;;;;;;;;;;;;;;;;;;4905032;29;19907;-86
2021/01/21 06:55:07;;;;;;;;;;;;;;;;;;4921990;29;19911;-86
2021/01/21 06:57:33;;;;;;;;;;;;;;;;;;4905118;29;20201;-85
2021/01/21 06:59:59;;;;;;;;;;;;;;;;;;4921767;29;20002;-87
2021/01/21 07:02:25;;;;;;;;;;;;;;;;;;4921949;29;20017;-86
2021/01/21 07:04:51;;;;;;;;;;;;;;;;;;4905073;29;20006;-86
2021/01/21 07:07:17;;;;;;;;;;;;;;;;;;4905462;29;19946;-85
2021/01/21 07:09:43;;;;;;;;;;;;;;;;;;4904840;29;20250;-85
2021/01/21 07:12:09;;;;;;;;;;;;;;;;;;4905038;29;19957;-85
2021/01/21 07:14:35;;;;;;;;;;;;;;;;;;4921376;29;19950;-85
2021/01/21 07:17:01;;;;;;;;;;;;;;;;;;4905170;29;19915;-85
2021/01/21 07:19:27;;;;;;;;;;;;;;;;;;4921774;29;19915;-85
2021/01/21 07:21:53;;;;;;;;;;;;;;;;;;4921611;29;19911;-85
2021/01/21 07:24:19;;;;;;;;;;;;;;;;;;4921503;29;19907;-85
2021/01/21 07:26:45;;;;;;;;;;;;;;;;;;4921738;29;20308;-85
2021/01/21 07:29:11;;;;;;;;;;;;;;;;;;4921533;29;19998;-86
2021/01/21 07:31:37;;;;;;;;;;;;;;;;;;4921629;29;19953;-86
2021/01/21 07:34:03;;;;;;;;;;;;;;;;;;4921493;29;20171;-85
2021/01/21 07:36:29;;;;;;;;;;;;;;;;;;4921505;29;19914;-85
2021/01/21 07:38:54;;;;;;;;;;;;;;;;;;4921386;29;19922;-85
2021/01/21 07:41:22;;;;;;;;;;;;;;;;;;4921496;29;19950;-85
2021/01/21 07:43:48;;;;;;;;;;;;;;;;;;4925487;29;19907;-84
2021/01/21 07:46:14;;;;;;;;;;;;;;;;;;4925282;29;20229;-85
2021/01/21 07:48:40;;;;;;;;;;;;;;;;;;4925345;29;20313;-84
2021/01/21 07:51:06;;;;;;;;;;;;;;;;;;4925090;29;19907;-85
2021/01/21 07:53:32;;;;;;;;;;;;;;;;;;4924806;29;19907;-85
2021/01/21 07:55:58;;;;;;;;;;;;;;;;;;4925161;29;20006;-85
2021/01/21 07:58:24;;;;;;;;;;;;;;;;;;4925229;29;19986;-85
2021/01/21 08:00:50;;;;;;;;;;;;;;;;;;4924923;29;19918;-86
2021/01/21 08:03:16;;;;;;;;;;;;;;;;;;4924936;29;19907;-85
2021/01/21 08:05:42;;;;;;;;;;;;;;;;;;4908273;29;19923;-85
2021/01/21 08:08:08;;;;;;;;;;;;;;;;;;4924669;29;19907;-85
2021/01/21 08:10:34;;;;;;;;;;;;;;;;;;4925083;29;19947;-85
2021/01/21 08:13:00;;;;;;;;;;;;;;;;;;4924893;29;20357;-86
2021/01/21 08:15:26;;;;;;;;;;;;;;;;;;4924694;29;20321;-85
2021/01/21 08:17:52;;;;;;;;;;;;;;;;;;4924683;29;19911;-86
2021/01/21 08:20:18;;;;;;;;;;;;;;;;;;4924718;29;19950;-85
2021/01/21 08:22:44;;;;;;;;;;;;;;;;;;4924629;29;19907;-85
2021/01/21 08:25:10;;;;;;;;;;;;;;;;;;4924256;29;19939;-85
2021/01/21 08:27:35;;;;;;;;;;;;;;;;;;4924551;29;20234;-84
2021/01/21 08:30:01;;;;;;;;;;;;;;;;;;4924338;29;20608;-84
2021/01/21 08:32:27;;;;;;;;;;;;;;;;;;4907476;29;20325;-84
2021/01/21 08:34:53;;;;;;;;;;;;;;;;;;4923970;29;19926;-84
2021/01/21 08:37:19;;;;;;;;;;;;;;;;;;4924168;29;19908;-83
2021/01/21 08:39:45;;;;;;;;;;;;;;;;;;4924018;29;19907;-83
2021/01/21 08:42:11;;;;;;;;;;;;;;;;;;4924107;29;20195;-84
2021/01/21 08:44:37;;;;;;;;;;;;;;;;;;4923892;29;19957;-84
2021/01/21 08:47:03;;;;;;;;;;;;;;;;;;4923859;29;19998;-84
2021/01/21 08:49:30;;;;;;;;;;;;;;;;;;4923966;29;20010;-83
2021/01/21 08:51:56;;;;;;;;;;;;;;;;;;4923857;29;19931;-78
2021/01/21 08:54:25;;;;;;;;;;;;;;;;;;4922431;29;19915;-80
2021/01/21 08:56:50;;;;;;;;;;;;;;;;;;4923469;29;19930;-82
2021/01/21 08:59:16;;;;;;;;;;;;;;;;;;4906876;29;20294;-81
2021/01/21 09:01:43;;;;;;;;;;;;;;;;;;4923373;29;19907;-81
2021/01/21 09:04:09;;;;;;;;;;;;;;;;;;4923251;29;19929;-81
2021/01/21 09:06:34;;;;;;;;;;;;;;;;;;4906884;29;19903;-81
2021/01/21 09:09:02;;;;;;;;;;;;;;;;;;4923321;29;19911;-81
2021/01/21 09:11:28;;;;;;;;;;;;;;;;;;4923311;29;19904;-81
2021/01/21 09:13:54;;;;;;;;;;;;;;;;;;4923127;29;19911;-81
2021/01/21 09:16:20;;;;;;;;;;;;;;;;;;4906462;29;19911;-83
2021/01/21 09:18:46;;;;;;;;;;;;;;;;;;4923358;29;19907;-82
2021/01/21 09:21:12;;;;;;;;;;;;;;;;;;4923103;29;20191;-81
2021/01/21 09:23:38;;;;;;;;;;;;;;;;;;4922983;29;19994;-81
2021/01/21 09:26:04;;;;;;;;;;;;;;;;;;4906520;29;19931;-81
2021/01/21 09:28:29;;;;;;;;;;;;;;;;;;4923122;29;19914;-81
2021/01/21 09:30:55;;;;;;;;;;;;;;;;;;4923070;29;20194;-81
2021/01/21 09:33:23;;;;;;;;;;;;;;;;;;4922899;29;19911;-81
2021/01/21 09:35:49;;;;;;;;;;;;;;;;;;4922855;29;19990;-82
2021/01/21 09:38:15;;;;;;;;;;;;;;;;;;4906208;29;19911;-81
2021/01/21 09:40:41;;;;;;;;;;;;;;;;;;4922798;29;19907;-82
2021/01/21 09:43:07;;;;;;;;;;;;;;;;;;4922989;29;19911;-81
2021/01/21 09:45:33;;;;;;;;;;;;;;;;;;4922872;29;20225;-81
2021/01/21 09:47:59;;;;;;;;;;;;;;;;;;4922661;29;19907;-82
2021/01/21 09:50:26;;;;;;;;;;;;;;;;;;4922599;29;19907;-81
2021/01/21 09:52:52;;;;;;;;;;;;;;;;;;4922609;29;19994;-82
2021/01/21 09:55:18;;;;;;;;;;;;;;;;;;4922295;29;19946;-81
2021/01/21 09:57:45;;;;;;;;;;;;;;;;;;4922677;29;20356;-81
2021/01/21 10:00:11;;;;;;;;;;;;;;;;;;4922264;29;19911;-81
2021/01/21 10:02:37;;;;;;;;;;;;;;;;;;4922392;29;19907;-81
2021/01/21 10:05:03;;;;;;;;;;;;;;;;;;4921865;29;19930;-81
2021/01/21 10:07:29;;;;;;;;;;;;;;;;;;4905571;29;19904;-81
2021/01/21 10:09:55;;;;;;;;;;;;;;;;;;4922207;29;19918;-81
2021/01/21 10:12:21;;;;;;;;;;;;;;;;;;4922384;29;19947;-81
2021/01/21 10:14:47;;;;;;;;;;;;;;;;;;4922081;29;19911;-81
2021/01/21 10:17:12;;;;;;;;;;;;;;;;;;4922142;29;19907;-81
2021/01/21 10:19:38;;;;;;;;;;;;;;;;;;4905492;29;19955;-81
2021/01/21 10:22:05;;;;;;;;;;;;;;;;;;4921893;29;19923;-81
2021/01/21 10:24:31;;;;;;;;;;;;;;;;;;4921889;29;19913;-81
2021/01/21 10:26:57;;;;;;;;;;;;;;;;;;4905520;29;20225;-81
2021/01/21 10:29:23;;;;;;;;;;;;;;;;;;4922070;29;19935;-81
2021/01/21 10:31:49;;;;;;;;;;;;;;;;;;4921943;29;19962;-81
2021/01/21 10:34:15;;;;;;;;;;;;;;;;;;4921867;29;20306;-81
2021/01/21 10:36:41;;;;;;;;;;;;;;;;;;4921726;29;20009;-81
2021/01/21 10:39:07;;;;;;;;;;;;;;;;;;4921706;29;19950;-81
2021/01/21 10:41:33;;;;;;;;;;;;;;;;;;4921613;29;19931;-81
2021/01/21 10:43:59;;;;;;;;;;;;;;;;;;4905132;29;19906;-82
2021/01/21 10:46:25;;;;;;;;;;;;;;;;;;4921786;29;19906;-81
2021/01/21 10:48:51;;;;;;;;;;;;;;;;;;4921487;29;20202;-81
2021/01/21 10:51:16;;;;;;;;;;;;;;;;;;4921667;29;19914;-81
2021/01/21 10:53:42;;;;;;;;;;;;;;;;;;4904569;29;19951;-81
2021/01/21 10:56:08;;;;;;;;;;;;;;;;;;4921241;29;20325;-81
2021/01/21 10:58:34;;;;;;;;;;;;;;;;;;4904891;29;19950;-81
2021/01/21 11:01:00;;;;;;;;;;;;;;;;;;4921233;29;20317;-81
2021/01/21 11:03:26;;;;;;;;;;;;;;;;;;4921254;29;19908;-81
2021/01/21 11:05:52;;;;;;;;;;;;;;;;;;4921372;29;20369;-81
2021/01/21 11:08:18;;;;;;;;;;;;;;;;;;4921253;29;20005;-80
2021/01/21 11:10:45;;;;;;;;;;;;;;;;;;4921338;29;20034;-81
2021/01/21 11:13:17;;;;;;;;;;;;;;;;;;4921168;29;20310;-81
2021/01/21 11:15:43;;;;;;;;;;;;;;;;;;4904531;29;19918;-81
2021/01/21 11:18:08;;;;;;;;;;;;;;;;;;4920682;29;20005;-81
2021/01/21 11:20:35;;;;;;;;;;;;;;;;;;4921300;29;20217;-81
2021/01/21 11:23:01;;;;;;;;;;;;;;;;;;4921204;29;20002;-80
2021/01/21 11:25:27;;;;;;;;;;;;;;;;;;4921033;29;19913;-81
2021/01/21 11:27:53;;;;;;;;;;;;;;;;;;4921001;29;19911;-81
2021/01/21 11:30:19;;;;;;;;;;;;;;;;;;4921022;29;19998;-81
2021/01/21 11:32:45;;;;;;;;;;;;;;;;;;4921235;29;19946;-81
2021/01/21 11:35:10;;;;;;;;;;;;;;;;;;4921055;29;20357;-81
2021/01/21 11:37:36;;;;;;;;;;;;;;;;;;4920923;29;20290;-81
2021/01/21 11:40:02;;;;;;;;;;;;;;;;;;4920953;29;20013;-80
2021/01/21 11:42:28;;;;;;;;;;;;;;;;;;4921061;29;19907;-80
2021/01/21 11:44:54;;;;;;;;;;;;;;;;;;4920923;29;19908;-80
2021/01/21 11:47:20;;;;;;;;;;;;;;;;;;4921180;29;19918;-80
2021/01/21 11:49:46;;;;;;;;;;;;;;;;;;4921035;29;19907;-80
2021/01/21 11:52:12;;;;;;;;;;;;;;;;;;4920651;29;19907;-80
2021/01/21 11:54:38;;;;;;;;;;;;;;;;;;4920752;29;20290;-80
2021/01/21 11:57:04;;;;;;;;;;;;;;;;;;4904247;29;20302;-80
2021/01/21 11:59:30;;;;;;;;;;;;;;;;;;4920866;29;19935;-80
2021/01/21 12:01:56;;;;;;;;;;;;;;;;;;4920848;29;20290;-80
2021/01/21 12:04:21;;;;;;;;;;;;;;;;;;4920338;29;19926;-80
2021/01/21 12:06:47;;;;;;;;;;;;;;;;;;4920743;29;19911;-79
2021/01/21 12:09:13;;;;;;;;;;;;;;;;;;4920645;29;20237;-80
2021/01/21 12:11:39;;;;;;;;;;;;;;;;;;4904219;29;19908;-79
2021/01/21 12:14:05;;;;;;;;;;;;;;;;;;4920628;29;19911;-80
2021/01/21 12:16:31;;;;;;;;;;;;;;;;;;4920899;29;19914;-80
2021/01/21 12:18:57;;;;;;;;;;;;;;;;;;4920796;29;19907;-80
2021/01/21 12:21:23;;;;;;;;;;;;;;;;;;4920711;29;20297;-80
2021/01/21 12:23:49;;;;;;;;;;;;;;;;;;4920613;29;19907;-80
2021/01/21 12:26:15;;;;;;;;;;;;;;;;;;4920581;29;19914;-80
2021/01/21 12:28:41;;;;;;;;;;;;;;;;;;4921387;29;20234;-80
2021/01/21 12:31:06;;;;;;;;;;;;;;;;;;4924221;29;20305;-80
2021/01/21 12:33:32;;;;;;;;;;;;;;;;;;4923806;29;20299;-80
2021/01/21 12:35:58;;;;;;;;;;;;;;;;;;4923927;29;20002;-80
2021/01/21 12:38:24;;;;;;;;;;;;;;;;;;4907085;29;20321;-80
2021/01/21 12:40:50;;;;;;;;;;;;;;;;;;4923860;29;19959;-80
2021/01/21 12:43:16;;;;;;;;;;;;;;;;;;4923889;29;19907;-80
2021/01/21 12:45:45;;;;;;;;;;;;;;;;;;4923695;29;19951;-80
2021/01/21 12:48:11;;;;;;;;;;;;;;;;;;4923573;29;20306;-80
2021/01/21 12:50:37;;;;;;;;;;;;;;;;;;4923652;29;19998;-80
2021/01/21 12:53:04;;;;;;;;;;;;;;;;;;4923507;29;19939;-80
2021/01/21 12:55:30;;;;;;;;;;;;;;;;;;4923516;29;20373;-80
2021/01/21 12:57:56;;;;;;;;;;;;;;;;;;4923477;29;19954;-80
2021/01/21 13:00:22;;;;;;;;;;;;;;;;;;4923481;29;19953;-80
2021/01/21 13:02:48;;;;;;;;;;;;;;;;;;4923730;29;19945;-80
2021/01/21 13:05:14;;;;;;;;;;;;;;;;;;4923187;29;19925;-80
2021/01/21 13:07:41;;;;;;;;;;;;;;;;;;4923231;29;19915;-80
2021/01/21 13:10:07;;;;;;;;;;;;;;;;;;4923469;29;20241;-80
2021/01/21 13:12:33;;;;;;;;;;;;;;;;;;4923253;29;19938;-80
2021/01/21 13:14:59;;;;;;;;;;;;;;;;;;4923368;29;19911;-80
2021/01/21 13:17:25;;;;;;;;;;;;;;;;;;4923245;29;19990;-80
2021/01/21 13:19:51;;;;;;;;;;;;;;;;;;4923083;29;19970;-79
2021/01/21 13:22:17;;;;;;;;;;;;;;;;;;4923050;29;19914;-80
2021/01/21 13:24:43;;;;;;;;;;;;;;;;;;4922900;29;19907;-80
2021/01/21 13:27:09;;;;;;;;;;;;;;;;;;4923195;29;20221;-84
2021/01/21 13:29:35;;;;;;;;;;;;;;;;;;4906469;29;19954;-79
2021/01/21 13:32:01;;;;;;;;;;;;;;;;;;4923114;29;19907;-79
2021/01/21 13:34:27;;;;;;;;;;;;;;;;;;4922553;29;19962;-79
2021/01/21 13:36:52;;;;;;;;;;;;;;;;;;4922731;29;20002;-79
2021/01/21 13:39:18;;;;;;;;;;;;;;;;;;4922335;29;20014;-79
2021/01/21 13:41:44;;;;;;;;;;;;;;;;;;4906156;29;20009;-79
2021/01/21 13:44:10;;;;;;;;;;;;;;;;;;4922837;29;19997;-79
2021/01/21 13:46:36;;;;;;;;;;;;;;;;;;4905955;29;19911;-79
2021/01/21 13:49:02;;;;;;;;;;;;;;;;;;4922685;29;19915;-79
2021/01/21 13:51:28;;;;;;;;;;;;;;;;;;4906082;29;19911;-79
2021/01/21 13:53:54;;;;;;;;;;;;;;;;;;4922380;29;20317;-80
2021/01/21 13:56:20;;;;;;;;;;;;;;;;;;4922388;29;19998;-79
2021/01/21 13:58:47;;;;;;;;;;;;;;;;;;4922342;29;19907;-79
2021/01/21 14:01:13;;;;;;;;;;;;;;;;;;4922570;29;19998;-79
2021/01/21 14:03:39;;;;;;;;;;;;;;;;;;4905278;29;20009;-79
2021/01/21 14:06:05;;;;;;;;;;;;;;;;;;4922486;29;19994;-79
2021/01/21 14:08:31;;;;;;;;;;;;;;;;;;4922335;29;19991;-79
2021/01/21 14:10:57;;;;;;;;;;;;;;;;;;4922237;29;19911;-79
2021/01/21 14:13:24;;;;;;;;;;;;;;;;;;4922151;29;19993;-79
2021/01/21 14:15:50;;;;;;;;;;;;;;;;;;4921860;29;20330;-79
2021/01/21 14:18:16;;;;;;;;;;;;;;;;;;4922018;29;19958;-79
2021/01/21 14:20:42;;;;;;;;;;;;;;;;;;4921927;29;19915;-78
2021/01/21 14:23:11;;;;;;;;;;;;;;;;;;4922067;29;19914;-79
2021/01/21 14:25:37;;;;;;;;;;;;;;;;;;4921843;29;19907;-79
2021/01/21 14:28:03;;;;;;;;;;;;;;;;;;4905044;29;19951;-79
2021/01/21 14:30:29;;;;;;;;;;;;;;;;;;4921703;29;19907;-78
2021/01/21 14:32:55;;;;;;;;;;;;;;;;;;4923614;29;19910;-90
2021/01/21 14:35:21;;;;;;;;;;;;;;;;;;4906666;29;19923;-78
2021/01/21 14:37:47;;;;;;;;;;;;;;;;;;4921730;29;20299;-82
2021/01/21 14:40:12;;;;;;;;;;;;;;;;;;4921608;29;19910;-79
2021/01/21 14:42:38;;;;;;;;;;;;;;;;;;4921579;29;19907;-79
2021/01/21 14:45:04;;;;;;;;;;;;;;;;;;4908657;29;20310;-78
2021/01/21 14:47:30;;;;;;;;;;;;;;;;;;4940522;29;19950;-79
2021/01/21 14:49:56;;;;;;;;;;;;;;;;;;4923687;29;19911;-79
2021/01/21 14:52:22;;;;;;;;;;;;;;;;;;4939650;29;19914;-80
2021/01/21 14:54:48;;;;;;;;;;;;;;;;;;4923475;29;19954;-79
2021/01/21 14:57:14;;;;;;;;;;;;;;;;;;4940325;29;19913;-79
2021/01/21 14:59:40;;;;;;;;;;;;;;;;;;4940379;29;19921;-79
2021/01/21 15:02:06;;;;;;;;;;;;;;;;;;4940432;29;19914;-79
2021/01/21 15:04:33;;;;;;;;;;;;;;;;;;4940176;29;19918;-79
2021/01/21 15:06:59;;;;;;;;;;;;;;;;;;4940520;29;19911;-79
2021/01/21 15:09:25;;;;;;;;;;;;;;;;;;4940415;29;20204;-79
2021/01/21 15:11:50;;;;;;;;;;;;;;;;;;4940262;29;19917;-79
2021/01/21 15:14:16;;;;;;;;;;;;;;;;;;4940134;29;19958;-79
2021/01/21 15:16:42;;;;;;;;;;;;;;;;;;4940247;29;19911;-79
2021/01/21 15:19:08;;;;;;;;;;;;;;;;;;4940071;29;19906;-79
2021/01/21 15:21:34;;;;;;;;;;;;;;;;;;4940043;29;19914;-79
2021/01/21 15:24:00;;;;;;;;;;;;;;;;;;4940009;29;19957;-79
2021/01/21 15:26:26;;;;;;;;;;;;;;;;;;4940100;29;19907;-79
2021/01/21 15:28:52;;;;;;;;;;;;;;;;;;4940111;29;19906;-79
2021/01/21 15:31:18;;;;;;;;;;;;;;;;;;4939987;29;20221;-79
2021/01/21 15:33:44;;;;;;;;;;;;;;;;;;4922974;29;20298;-79
2021/01/21 15:36:10;;;;;;;;;;;;;;;;;;4923390;29;19918;-79
2021/01/21 15:38:36;;;;;;;;;;;;;;;;;;4939861;29;19917;-79
2021/01/21 15:41:02;;;;;;;;;;;;;;;;;;4939840;29;19907;-79
2021/01/21 15:43:28;;;;;;;;;;;;;;;;;;4923087;29;20038;-79
2021/01/21 15:45:54;;;;;;;;;;;;;;;;;;4939911;29;19951;-79
2021/01/21 15:48:20;;;;;;;;;;;;;;;;;;4923031;29;20389;-82
2021/01/21 15:50:46;;;;;;;;;;;;;;;;;;4939943;29;19907;-82
2021/01/21 15:53:12;;;;;;;;;;;;;;;;;;4939628;29;19973;-79
2021/01/21 15:55:38;;;;;;;;;;;;;;;;;;4940009;29;19910;-79
2021/01/21 15:58:04;;;;;;;;;;;;;;;;;;4939967;29;19970;-79
2021/01/21 16:00:30;;;;;;;;;;;;;;;;;;4939775;29;20289;-78
2021/01/21 16:02:57;;;;;;;;;;;;;;;;;;4940657;29;19938;-79
2021/01/21 16:05:23;;;;;;;;;;;;;;;;;;4926333;29;19926;-78
2021/01/21 16:07:49;;;;;;;;;;;;;;;;;;4926732;29;19915;-78
2021/01/21 16:10:15;;;;;;;;;;;;;;;;;;4943513;29;19907;-79
2021/01/21 16:12:41;;;;;;;;;;;;;;;;;;4943249;29;20360;-79
2021/01/21 16:15:06;;;;;;;;;;;;;;;;;;4926670;29;20194;-79
2021/01/21 16:17:33;;;;;;;;;;;;;;;;;;4943384;29;20237;-79
2021/01/21 16:19:59;;;;;;;;;;;;;;;;;;4926337;29;19914;-79
2021/01/21 16:22:25;;;;;;;;;;;;;;;;;;4943127;29;20337;-79
2021/01/21 16:24:51;;;;;;;;;;;;;;;;;;4926303;29;20001;-79
2021/01/21 16:27:17;;;;;;;;;;;;;;;;;;4943103;29;19985;-79
2021/01/21 16:29:43;;;;;;;;;;;;;;;;;;4943130;29;19913;-79
2021/01/21 16:32:09;;;;;;;;;;;;;;;;;;4942919;29;19946;-79
2021/01/21 16:34:35;;;;;;;;;;;;;;;;;;4925866;29;19937;-79
2021/01/21 16:37:01;;;;;;;;;;;;;;;;;;4942738;29;20352;-79
2021/01/21 16:39:27;;;;;;;;;;;;;;;;;;4925882;29;19907;-79
2021/01/21 16:41:52;;;;;;;;;;;;;;;;;;4942819;29;19907;-79
2021/01/21 16:44:18;;;;;;;;;;;;;;;;;;4942792;29;20013;-79
2021/01/21 16:46:45;;;;;;;;;;;;;;;;;;4942807;29;19954;-79
2021/01/21 16:49:11;;;;;;;;;;;;;;;;;;4942600;29;20010;-79
2021/01/21 16:51:37;;;;;;;;;;;;;;;;;;4925872;29;20209;-79
2021/01/21 16:54:03;;;;;;;;;;;;;;;;;;4942653;29;20031;-80
2021/01/21 16:56:29;;;;;;;;;;;;;;;;;;4925871;29;20301;-79
2021/01/21 16:58:56;;;;;;;;;;;;;;;;;;4942572;29;19907;-79
2021/01/21 17:01:22;;;;;;;;;;;;;;;;;;4942474;29;19946;-79
2021/01/21 17:03:48;;;;;;;;;;;;;;;;;;4942124;29;19994;-79
2021/01/21 17:06:13;;;;;;;;;;;;;;;;;;4942535;29;19915;-79
2021/01/21 17:08:39;;;;;;;;;;;;;;;;;;4925485;29;20325;-79
2021/01/21 17:11:05;;;;;;;;;;;;;;;;;;4942499;29;19934;-79
2021/01/21 17:13:31;;;;;;;;;;;;;;;;;;4942458;29;19907;-79
2021/01/21 17:15:57;;;;;;;;;;;;;;;;;;4924702;29;19984;-79
2021/01/21 17:18:23;;;;;;;;;;;;;;;;;;4942111;29;19914;-80
2021/01/21 17:20:49;;;;;;;;;;;;;;;;;;4942320;29;19968;-77
2021/01/21 17:23:15;;;;;;;;;;;;;;;;;;4942060;29;20301;-78
2021/01/21 17:25:41;;;;;;;;;;;;;;;;;;4941979;29;19910;-78
2021/01/21 17:28:07;;;;;;;;;;;;;;;;;;4925227;29;19949;-78
2021/01/21 17:30:33;;;;;;;;;;;;;;;;;;4941928;29;20249;-77
2021/01/21 17:32:59;;;;;;;;;;;;;;;;;;4941816;29;20242;-77
2021/01/21 17:35:25;;;;;;;;;;;;;;;;;;4942059;29;19915;-77
2021/01/21 17:37:51;;;;;;;;;;;;;;;;;;4925115;29;20038;-77